createdAt,value
2023-05-21T00:00:23.368Z,1013.7
2023-05-21T00:02:23.327Z,1013.7
2023-05-21T00:04:23.473Z,1013.7
2023-05-21T00:06:24.067Z,1013.7
2023-05-21T00:08:24.120Z,1013.7
2023-05-21T00:10:24.459Z,1013.7
2023-05-21T00:12:23.648Z,1013.7
2023-05-21T00:14:23.244Z,1013.7
2023-05-21T00:16:23.446Z,1013.7
2023-05-21T00:18:24.758Z,1013.7
2023-05-21T00:20:23.325Z,1013.7
2023-05-21T00:22:23.354Z,1013.7
2023-05-21T00:24:23.364Z,1013.8
2023-05-21T00:26:23.270Z,1013.8
2023-05-21T00:28:23.325Z,1013.8
2023-05-21T00:30:23.322Z,1013.8
2023-05-21T00:32:23.336Z,1013.8
2023-05-21T00:34:24.464Z,1013.8
2023-05-21T00:36:24.416Z,1013.8
2023-05-21T00:38:23.383Z,1013.8
2023-05-21T00:40:23.371Z,1013.8
2023-05-21T00:42:23.275Z,1013.8
2023-05-21T00:44:24.554Z,1013.8
2023-05-21T00:46:23.282Z,1013.9
2023-05-21T00:48:23.264Z,1013.9
2023-05-21T00:50:23.212Z,1013.9
2023-05-21T00:52:23.271Z,1013.9
2023-05-21T00:54:23.241Z,1014
2023-05-21T00:56:23.267Z,1014
2023-05-21T00:58:23.279Z,1014
2023-05-21T01:00:23.316Z,1014
2023-05-21T01:02:23.312Z,1014
2023-05-21T01:04:23.204Z,1014
2023-05-21T01:06:23.677Z,1014
2023-05-21T01:08:24.277Z,1014
2023-05-21T01:10:23.260Z,1014
2023-05-21T01:12:23.229Z,1014.1
2023-05-21T01:14:23.192Z,1014.1
2023-05-21T01:16:23.210Z,1014.1
2023-05-21T01:18:23.204Z,1014.1
2023-05-21T01:20:23.177Z,1014.1
2023-05-21T01:22:23.245Z,1014.1
2023-05-21T01:24:23.218Z,1014.2
2023-05-21T01:26:23.187Z,1014.2
2023-05-21T01:28:23.188Z,1014.2
2023-05-21T01:30:23.231Z,1014.2
2023-05-21T01:32:23.232Z,1014.3
2023-05-21T01:34:23.233Z,1014.3
2023-05-21T01:36:23.212Z,1014.3
2023-05-21T01:38:23.198Z,1014.3
2023-05-21T01:40:23.207Z,1014.3
2023-05-21T01:42:23.239Z,1014.4
2023-05-21T01:44:23.198Z,1014.4
2023-05-21T01:46:24.370Z,1014.4
2023-05-21T01:48:23.213Z,1014.4
2023-05-21T01:50:23.209Z,1014.4
2023-05-21T01:52:23.200Z,1014.4
2023-05-21T01:54:23.219Z,1014.5
2023-05-21T01:56:23.178Z,1014.5
2023-05-21T01:58:23.210Z,1014.5
2023-05-21T02:00:23.268Z,1014.5
2023-05-21T02:02:23.206Z,1014.5
2023-05-21T02:04:23.169Z,1014.6
2023-05-21T02:06:24.273Z,1014.6
2023-05-21T02:08:23.225Z,1014.5
2023-05-21T02:10:23.173Z,1014.6
2023-05-21T02:12:23.171Z,1014.5
2023-05-21T02:14:23.239Z,1014.5
2023-05-21T02:16:23.222Z,1014.5
2023-05-21T02:18:23.191Z,1014.5
2023-05-21T02:20:23.289Z,1014.6
2023-05-21T02:22:23.306Z,1014.6
2023-05-21T02:24:23.158Z,1014.6
2023-05-21T02:26:23.310Z,1014.7
2023-05-21T02:28:23.210Z,1014.7
2023-05-21T02:30:23.200Z,1014.7
2023-05-21T02:32:27.625Z,1014.7
2023-05-21T02:34:23.285Z,1014.7
2023-05-21T02:36:23.535Z,1014.6
2023-05-21T02:38:23.311Z,1014.7
2023-05-21T02:40:23.207Z,1014.7
2023-05-21T02:42:24.576Z,1014.7
2023-05-21T02:44:23.094Z,1014.7
2023-05-21T02:46:23.308Z,1014.8
2023-05-21T02:48:23.155Z,1014.7
2023-05-21T02:50:23.380Z,1014.8
2023-05-21T02:52:23.252Z,1014.7
2023-05-21T02:54:23.137Z,1014.7
2023-05-21T02:56:23.159Z,1014.7
2023-05-21T02:58:23.152Z,1014.7
2023-05-21T03:00:23.228Z,1014.8
2023-05-21T03:02:23.282Z,1014.8
2023-05-21T03:04:23.195Z,1014.8
2023-05-21T03:06:23.144Z,1014.8
2023-05-21T03:08:23.091Z,1014.8
2023-05-21T03:10:23.102Z,1014.8
2023-05-21T03:12:23.095Z,1014.8
2023-05-21T03:14:23.137Z,1014.8
2023-05-21T03:16:23.283Z,1014.8
2023-05-21T03:18:23.278Z,1014.8
2023-05-21T03:20:23.137Z,1014.7
2023-05-21T03:22:24.546Z,1014.8
2023-05-21T03:24:23.104Z,1014.8
2023-05-21T03:26:23.132Z,1014.7
2023-05-21T03:28:23.051Z,1014.8
2023-05-21T03:30:23.130Z,1014.8
2023-05-21T03:32:23.209Z,1014.8
2023-05-21T03:34:23.069Z,1014.8
2023-05-21T03:36:24.748Z,1014.8
2023-05-21T03:38:23.057Z,1014.9
2023-05-21T03:40:23.039Z,1014.9
2023-05-21T03:42:23.182Z,1014.9
2023-05-21T03:44:23.139Z,1014.9
2023-05-21T03:46:23.143Z,1014.9
2023-05-21T03:48:23.071Z,1014.9
2023-05-21T03:50:23.037Z,1014.9
2023-05-21T03:52:23.022Z,1014.9
2023-05-21T03:54:23.038Z,1014.9
2023-05-21T03:56:23.067Z,1014.9
2023-05-21T03:58:23.073Z,1015
2023-05-21T04:00:23.093Z,1015
2023-05-21T04:02:23.251Z,1015
2023-05-21T04:04:23.068Z,1015
2023-05-21T04:06:23.033Z,1015
2023-05-21T04:08:23.116Z,1015
2023-05-21T04:10:23.101Z,1015
2023-05-21T04:12:23.157Z,1015
2023-05-21T04:14:23.079Z,1015
2023-05-21T04:16:23.079Z,1015
2023-05-21T04:18:23.192Z,1015.1
2023-05-21T04:20:23.133Z,1015.1
2023-05-21T04:22:23.060Z,1015.1
2023-05-21T04:24:23.057Z,1015.1
2023-05-21T04:26:23.084Z,1015.1
2023-05-21T04:28:23.155Z,1015.1
2023-05-21T04:30:23.049Z,1015.1
2023-05-21T04:32:23.155Z,1015.2
2023-05-21T04:34:23.004Z,1015.2
2023-05-21T04:36:23.007Z,1015.2
2023-05-21T04:38:22.973Z,1015.2
2023-05-21T04:40:23.025Z,1015.2
2023-05-21T04:42:23.029Z,1015.2
2023-05-21T04:44:23.109Z,1015.2
2023-05-21T04:46:23.004Z,1015.2
2023-05-21T04:48:29.421Z,1015.2
2023-05-21T04:50:22.979Z,1015.2
2023-05-21T04:52:23.016Z,1015.2
2023-05-21T04:54:22.958Z,1015.2
2023-05-21T04:56:23.073Z,1015.3
2023-05-21T04:58:23.017Z,1015.3
2023-05-21T05:00:23.041Z,1015.3
2023-05-21T05:02:23.073Z,1015.3
2023-05-21T05:04:22.926Z,1015.3
2023-05-21T05:06:23.009Z,1015.3
2023-05-21T05:08:23.041Z,1015.3
2023-05-21T05:10:23.003Z,1015.3
2023-05-21T05:12:23.000Z,1015.3
2023-05-21T05:14:22.957Z,1015.3
2023-05-21T05:16:23.109Z,1015.3
2023-05-21T05:18:23.042Z,1015.3
2023-05-21T05:20:22.983Z,1015.3
2023-05-21T05:22:22.959Z,1015.3
2023-05-21T05:24:22.939Z,1015.3
2023-05-21T05:26:23.056Z,1015.3
2023-05-21T05:28:23.098Z,1015.3
2023-05-21T05:30:22.878Z,1015.3
2023-05-21T05:32:22.979Z,1015.3
2023-05-21T05:34:22.934Z,1015.2
2023-05-21T05:36:23.072Z,1015.2
2023-05-21T05:38:22.959Z,1015.3
2023-05-21T05:40:22.983Z,1015.2
2023-05-21T05:42:22.943Z,1015.2
2023-05-21T05:44:22.970Z,1015.2
2023-05-21T05:46:23.012Z,1015.2
2023-05-21T05:48:22.925Z,1015.2
2023-05-21T05:50:22.990Z,1015.2
2023-05-21T05:52:22.963Z,1015.2
2023-05-21T05:54:22.968Z,1015.2
2023-05-21T05:56:23.032Z,1015.2
2023-05-21T05:58:22.945Z,1015.2
2023-05-21T06:00:22.944Z,1015.2
2023-05-21T06:02:23.004Z,1015.2
2023-05-21T06:04:22.958Z,1015.2
2023-05-21T06:06:24.307Z,1015.2
2023-05-21T06:08:22.990Z,1015.2
2023-05-21T06:10:22.882Z,1015.1
2023-05-21T06:12:22.956Z,1015.1
2023-05-21T06:14:22.993Z,1015.1
2023-05-21T06:16:22.934Z,1015.1
2023-05-21T06:18:22.880Z,1015.2
2023-05-21T06:20:22.870Z,1015.2
2023-05-21T06:22:24.891Z,1015.2
2023-05-21T06:24:22.927Z,1015.2
2023-05-21T06:26:22.975Z,1015.2
2023-05-21T06:28:22.970Z,1015.1
2023-05-21T06:30:22.914Z,1015.1
2023-05-21T06:32:23.165Z,1015.1
2023-05-21T06:34:22.893Z,1015.1
2023-05-21T06:36:22.838Z,1015
2023-05-21T06:38:23.004Z,1015
2023-05-21T06:40:22.905Z,1015
2023-05-21T06:42:22.968Z,1015
2023-05-21T06:44:22.960Z,1015
2023-05-21T06:46:22.955Z,1015
2023-05-21T06:48:22.904Z,1015
2023-05-21T06:50:22.874Z,1015
2023-05-21T06:52:22.869Z,1015
2023-05-21T06:54:24.056Z,1015
2023-05-21T06:56:22.897Z,1015
2023-05-21T06:58:22.928Z,1014.9
2023-05-21T07:00:22.887Z,1014.9
2023-05-21T07:02:22.824Z,1014.9
2023-05-21T07:04:22.857Z,1015
2023-05-21T07:06:22.865Z,1015
2023-05-21T07:08:22.851Z,1015
2023-05-21T07:10:22.883Z,1015.1
2023-05-21T07:12:22.829Z,1015.1
2023-05-21T07:14:22.878Z,1015.1
2023-05-21T07:16:22.894Z,1015.1
2023-05-21T07:18:22.827Z,1015.2
2023-05-21T07:20:22.913Z,1015.2
2023-05-21T07:22:22.832Z,1015.2
2023-05-21T07:24:22.839Z,1015.3
2023-05-21T07:26:22.897Z,1015.3
2023-05-21T07:28:22.822Z,1015.3
2023-05-21T07:30:22.980Z,1015.3
2023-05-21T07:32:22.835Z,1015.4
2023-05-21T07:34:22.751Z,1015.4
2023-05-21T07:36:22.806Z,1015.4
2023-05-21T07:38:22.859Z,1015.4
2023-05-21T07:40:22.906Z,1015.4
2023-05-21T07:42:22.845Z,1015.4
2023-05-21T07:44:22.831Z,1015.4
2023-05-21T07:46:23.881Z,1015.4
2023-05-21T07:48:22.873Z,1015.4
2023-05-21T07:50:22.912Z,1015.4
2023-05-21T07:52:23.007Z,1015.4
2023-05-21T07:54:22.843Z,1015.4
2023-05-21T07:56:22.762Z,1015.4
2023-05-21T07:58:22.858Z,1015.5
2023-05-21T08:00:22.898Z,1015.6
2023-05-21T08:02:22.908Z,1015.6
2023-05-21T08:04:23.048Z,1015.6
2023-05-21T08:06:22.868Z,1015.6
2023-05-21T08:08:22.762Z,1015.6
2023-05-21T08:10:22.838Z,1015.6
2023-05-21T08:12:22.824Z,1015.7
2023-05-21T08:14:22.771Z,1015.7
2023-05-21T08:16:22.787Z,1015.7
2023-05-21T08:18:22.761Z,1015.7
2023-05-21T08:20:22.770Z,1015.7
2023-05-21T08:22:22.796Z,1015.8
2023-05-21T08:24:22.782Z,1015.8
2023-05-21T08:26:22.746Z,1015.8
2023-05-21T08:28:22.766Z,1015.8
2023-05-21T08:30:22.808Z,1015.8
2023-05-21T08:32:22.803Z,1015.8
2023-05-21T08:34:22.827Z,1015.8
2023-05-21T08:36:23.962Z,1015.7
2023-05-21T08:38:22.771Z,1015.8
2023-05-21T08:40:22.811Z,1015.8
2023-05-21T08:42:35.426Z,1015.9
2023-05-21T08:44:22.748Z,1015.9
2023-05-21T08:48:22.688Z,1016
2023-05-21T08:50:22.752Z,1016
2023-05-21T08:52:24.162Z,1016
2023-05-21T08:54:22.711Z,1016
2023-05-21T08:56:22.802Z,1016.1
2023-05-21T08:58:22.673Z,1016.2
2023-05-21T09:00:22.698Z,1016.2
2023-05-21T09:02:22.810Z,1016.1
2023-05-21T09:04:22.749Z,1016.2
2023-05-21T09:06:22.727Z,1016.3
2023-05-21T09:08:22.733Z,1016.2
2023-05-21T09:10:22.717Z,1016.3
2023-05-21T09:12:22.706Z,1016.2
2023-05-21T09:14:22.727Z,1016.2
2023-05-21T09:16:22.719Z,1016.2
2023-05-21T09:18:22.680Z,1016.3
2023-05-21T09:20:22.698Z,1016.3
2023-05-21T09:22:22.689Z,1016.3
2023-05-21T09:24:22.711Z,1016.3
2023-05-21T09:26:22.715Z,1016.4
2023-05-21T09:28:22.711Z,1016.4
2023-05-21T09:30:34.142Z,1016.5
2023-05-21T09:32:22.681Z,1016.5
2023-05-21T09:34:22.757Z,1016.5
2023-05-21T09:36:22.694Z,1016.5
2023-05-21T09:38:22.754Z,1016.5
2023-05-21T09:40:22.653Z,1016.5
2023-05-21T09:42:22.710Z,1016.6
2023-05-21T09:44:22.755Z,1016.6
2023-05-21T09:46:22.676Z,1016.6
2023-05-21T09:48:22.685Z,1016.6
2023-05-21T09:50:22.676Z,1016.6
2023-05-21T09:52:23.120Z,1016.7
2023-05-21T09:54:22.660Z,1016.7
2023-05-21T09:56:22.696Z,1016.7
2023-05-21T09:58:22.766Z,1016.8
2023-05-21T10:00:22.805Z,1016.9
2023-05-21T10:02:22.869Z,1016.9
2023-05-21T10:04:22.820Z,1016.9
2023-05-21T10:06:22.678Z,1016.9
2023-05-21T10:08:22.734Z,1016.9
2023-05-21T10:10:22.705Z,1017.1
2023-05-21T10:12:22.691Z,1017.2
2023-05-21T10:14:22.773Z,1017.3
2023-05-21T10:16:22.732Z,1017.4
2023-05-21T10:18:22.712Z,1017.5
2023-05-21T10:20:22.691Z,1017.5
2023-05-21T10:22:22.846Z,1017.5
2023-05-21T10:24:24.240Z,1017.5
2023-05-21T10:26:22.675Z,1017.5
2023-05-21T10:28:22.683Z,1017.5
2023-05-21T10:30:22.618Z,1017.6
2023-05-21T10:32:23.012Z,1017.5
2023-05-21T10:34:22.580Z,1017.5
2023-05-21T10:36:22.627Z,1017.5
2023-05-21T10:38:22.718Z,1017.6
2023-05-21T10:40:22.706Z,1017.7
2023-05-21T10:42:22.593Z,1017.7
2023-05-21T10:44:22.634Z,1017.8
2023-05-21T10:46:22.712Z,1017.8
2023-05-21T10:48:22.658Z,1017.8
2023-05-21T10:50:22.605Z,1017.9
2023-05-21T10:52:22.601Z,1017.9
2023-05-21T10:54:22.770Z,1017.9
2023-05-21T10:56:23.855Z,1018
2023-05-21T10:58:23.961Z,1018
2023-05-21T11:00:22.579Z,1018
2023-05-21T11:02:22.789Z,1018
2023-05-21T11:04:22.678Z,1018
2023-05-21T11:06:22.698Z,1018
2023-05-21T11:08:22.914Z,1018.1
2023-05-21T11:10:22.618Z,1018.1
2023-05-21T11:12:22.603Z,1018
2023-05-21T11:14:22.780Z,1018
2023-05-21T11:16:22.701Z,1018
2023-05-21T11:18:22.626Z,1018.1
2023-05-21T11:20:22.854Z,1018.1
2023-05-21T11:22:22.603Z,1018.1
2023-05-21T11:24:23.725Z,1018.2
2023-05-21T11:26:22.627Z,1018.1
2023-05-21T11:28:22.674Z,1018.1
2023-05-21T11:30:22.551Z,1018.1
2023-05-21T11:32:22.591Z,1018.1
2023-05-21T11:34:22.676Z,1018.1
2023-05-21T11:36:22.577Z,1018.1
2023-05-21T11:38:22.559Z,1018.2
2023-05-21T11:40:22.583Z,1018.1
2023-05-21T11:42:22.554Z,1018.2
2023-05-21T11:44:23.651Z,1018.1
2023-05-21T11:46:22.599Z,1018.1
2023-05-21T11:48:26.663Z,1018.1
2023-05-21T11:50:22.668Z,1018.2
2023-05-21T11:52:23.928Z,1018.2
2023-05-21T11:54:22.519Z,1018.2
2023-05-21T11:56:22.631Z,1018.1
2023-05-21T11:58:23.761Z,1018.1
2023-05-21T12:00:22.529Z,1018.1
2023-05-21T12:02:22.676Z,1018.1
2023-05-21T12:04:22.585Z,1018.2
2023-05-21T12:06:22.775Z,1018.2
2023-05-21T12:08:22.580Z,1018.3
2023-05-21T12:10:22.632Z,1018.3
2023-05-21T12:12:23.888Z,1018.3
2023-05-21T12:14:24.053Z,1018.3
2023-05-21T12:16:22.486Z,1018.3
2023-05-21T12:18:25.255Z,1018.3
2023-05-21T12:20:22.716Z,1018.4
2023-05-21T12:22:23.568Z,1018.5
2023-05-21T12:24:22.649Z,1018.5
2023-05-21T12:26:22.503Z,1018.5
2023-05-21T12:28:22.626Z,1018.5
2023-05-21T12:30:22.662Z,1018.5
2023-05-21T12:32:22.565Z,1018.5
2023-05-21T12:34:22.607Z,1018.5
2023-05-21T12:36:24.087Z,1018.5
2023-05-21T12:38:22.466Z,1018.5
2023-05-21T12:40:22.760Z,1018.5
2023-05-21T12:42:22.541Z,1018.5
2023-05-21T12:44:22.580Z,1018.5
2023-05-21T12:46:22.558Z,1018.5
2023-05-21T12:48:22.596Z,1018.5
2023-05-21T12:50:22.500Z,1018.5
2023-05-21T12:52:22.588Z,1018.6
2023-05-21T12:54:22.554Z,1018.6
2023-05-21T12:56:23.990Z,1018.7
2023-05-21T12:58:22.493Z,1018.6
2023-05-21T13:00:22.526Z,1018.7
2023-05-21T13:02:22.533Z,1018.7
2023-05-21T13:04:23.737Z,1018.7
2023-05-21T13:06:22.538Z,1018.7
2023-05-21T13:08:22.583Z,1018.6
2023-05-21T13:10:22.530Z,1018.7
2023-05-21T13:12:22.571Z,1018.7
2023-05-21T13:14:22.458Z,1018.7
2023-05-21T13:16:22.429Z,1018.7
2023-05-21T13:18:22.777Z,1018.6
2023-05-21T13:20:22.627Z,1018.7
2023-05-21T13:22:22.486Z,1018.7
2023-05-21T13:24:22.447Z,1018.7
2023-05-21T13:26:22.448Z,1018.7
2023-05-21T13:28:22.448Z,1018.7
2023-05-21T13:30:23.549Z,1018.7
2023-05-21T13:32:22.559Z,1018.6
2023-05-21T13:34:22.516Z,1018.7
2023-05-21T13:36:22.423Z,1018.7
2023-05-21T13:38:22.467Z,1018.7
2023-05-21T13:40:22.408Z,1018.6
2023-05-21T13:42:22.412Z,1018.6
2023-05-21T13:44:22.456Z,1018.6
2023-05-21T13:46:22.486Z,1018.7
2023-05-21T13:48:22.466Z,1018.7
2023-05-21T13:50:23.748Z,1018.7
2023-05-21T13:52:22.436Z,1018.7
2023-05-21T13:54:22.411Z,1018.7
2023-05-21T13:56:22.429Z,1018.6
2023-05-21T13:58:22.534Z,1018.7
2023-05-21T14:00:23.854Z,1018.6
2023-05-21T14:02:22.388Z,1018.7
2023-05-21T14:04:22.401Z,1018.6
2023-05-21T14:06:22.455Z,1018.6
2023-05-21T14:08:22.420Z,1018.5
2023-05-21T14:10:22.364Z,1018.6
2023-05-21T14:12:22.371Z,1018.6
2023-05-21T14:14:22.450Z,1018.6
2023-05-21T14:16:22.469Z,1018.7
2023-05-21T14:18:22.415Z,1018.7
2023-05-21T14:20:22.495Z,1018.7
2023-05-21T14:22:22.457Z,1018.7
2023-05-21T14:24:24.020Z,1018.7
2023-05-21T14:26:22.532Z,1018.7
2023-05-21T14:28:22.388Z,1018.7
2023-05-21T14:30:22.551Z,1018.7
2023-05-21T14:32:22.431Z,1018.7
2023-05-21T14:34:22.377Z,1018.8
2023-05-21T14:36:22.358Z,1018.8
2023-05-21T14:38:22.373Z,1018.7
2023-05-21T14:40:22.448Z,1018.8
2023-05-21T14:42:22.755Z,1018.8
2023-05-21T14:44:22.410Z,1018.8
2023-05-21T14:46:22.452Z,1018.8
2023-05-21T14:48:22.498Z,1018.8
2023-05-21T14:50:22.403Z,1018.8
2023-05-21T14:52:22.376Z,1018.8
2023-05-21T14:54:22.347Z,1018.8
2023-05-21T14:56:22.421Z,1018.8
2023-05-21T14:58:22.371Z,1018.8
2023-05-21T15:00:22.369Z,1018.8
2023-05-21T15:02:22.386Z,1018.9
2023-05-21T15:04:22.496Z,1018.9
2023-05-21T15:06:22.519Z,1018.9
2023-05-21T15:08:22.332Z,1018.9
2023-05-21T15:10:22.388Z,1018.9
2023-05-21T15:12:22.374Z,1018.9
2023-05-21T15:14:22.477Z,1018.9
2023-05-21T15:16:22.364Z,1018.9
2023-05-21T15:18:22.307Z,1018.9
2023-05-21T15:20:26.781Z,1018.9
2023-05-21T15:22:22.301Z,1018.8
2023-05-21T15:24:22.311Z,1018.9
2023-05-21T15:26:22.322Z,1018.8
2023-05-21T15:28:22.345Z,1018.9
2023-05-21T15:30:22.351Z,1018.8
2023-05-21T15:32:22.296Z,1018.8
2023-05-21T15:34:22.369Z,1018.9
2023-05-21T15:36:22.372Z,1018.8
2023-05-21T15:38:22.298Z,1018.8
2023-05-21T15:40:22.933Z,1018.8
2023-05-21T15:42:22.481Z,1018.8
2023-05-21T15:44:22.279Z,1018.7
2023-05-21T15:46:22.398Z,1018.7
2023-05-21T15:48:22.453Z,1018.7
2023-05-21T15:50:22.723Z,1018.7
2023-05-21T15:52:22.285Z,1018.7
2023-05-21T15:54:22.373Z,1018.8
2023-05-21T15:56:22.318Z,1018.7
2023-05-21T15:58:22.289Z,1018.7
2023-05-21T16:00:22.346Z,1018.7
2023-05-21T16:02:22.312Z,1018.7
2023-05-21T16:04:22.267Z,1018.7
2023-05-21T16:06:22.274Z,1018.7
2023-05-21T16:08:22.234Z,1018.6
2023-05-21T16:10:22.233Z,1018.6
2023-05-21T16:12:22.424Z,1018.6
2023-05-21T16:14:22.498Z,1018.5
2023-05-21T16:16:24.464Z,1018.5
2023-05-21T16:18:22.287Z,1018.6
2023-05-21T16:20:22.302Z,1018.5
2023-05-21T16:22:22.265Z,1018.5
2023-05-21T16:24:22.341Z,1018.5
2023-05-21T16:26:22.250Z,1018.5
2023-05-21T16:28:22.323Z,1018.5
2023-05-21T16:30:22.404Z,1018.6
2023-05-21T16:32:22.503Z,1018.5
2023-05-21T16:34:22.362Z,1018.5
2023-05-21T16:36:22.255Z,1018.6
2023-05-21T16:38:22.247Z,1018.5
2023-05-21T16:40:22.277Z,1018.4
2023-05-21T16:42:22.220Z,1018.5
2023-05-21T16:44:22.211Z,1018.5
2023-05-21T16:46:22.354Z,1018.4
2023-05-21T16:48:22.386Z,1018.5
2023-05-21T16:50:23.479Z,1018.4
2023-05-21T16:52:22.260Z,1018.4
2023-05-21T16:54:22.325Z,1018.4
2023-05-21T16:56:22.365Z,1018.4
2023-05-21T16:58:22.255Z,1018.4
2023-05-21T17:00:23.449Z,1018.3
2023-05-21T17:02:22.351Z,1018.4
2023-05-21T17:04:22.194Z,1018.4
2023-05-21T17:06:22.346Z,1018.3
2023-05-21T17:08:23.590Z,1018.3
2023-05-21T17:10:22.239Z,1018.4
2023-05-21T17:12:25.124Z,1018.3
2023-05-21T17:14:32.908Z,1018.4
2023-05-21T17:16:22.279Z,1018.3
2023-05-21T17:18:22.244Z,1018.3
2023-05-21T17:20:24.750Z,1018.2
2023-05-21T17:22:22.270Z,1018.2
2023-05-21T17:24:22.282Z,1018.2
2023-05-21T17:26:22.312Z,1018.2
2023-05-21T17:28:22.236Z,1018.2
2023-05-21T17:30:26.567Z,1018.2
2023-05-21T17:32:22.355Z,1018.2
2023-05-21T17:34:22.183Z,1018.1
2023-05-21T17:36:22.206Z,1018.2
2023-05-21T17:38:22.320Z,1018
2023-05-21T17:40:22.243Z,1018
2023-05-21T17:42:22.127Z,1017.9
2023-05-21T17:44:22.146Z,1017.9
2023-05-21T17:46:22.248Z,1017.9
2023-05-21T17:48:22.370Z,1017.9
2023-05-21T17:50:22.221Z,1017.9
2023-05-21T17:52:22.210Z,1017.9
2023-05-21T17:54:22.237Z,1017.8
2023-05-21T17:56:22.250Z,1017.9
2023-05-21T17:58:23.233Z,1017.9
2023-05-21T18:00:22.300Z,1017.9
2023-05-21T18:02:22.159Z,1017.8
2023-05-21T18:04:22.127Z,1017.8
2023-05-21T18:06:22.136Z,1017.8
2023-05-21T18:08:22.157Z,1017.8
2023-05-21T18:10:22.189Z,1017.8
2023-05-21T18:12:22.223Z,1017.8
2023-05-21T18:14:22.086Z,1017.8
2023-05-21T18:16:22.458Z,1017.7
2023-05-21T18:18:22.116Z,1017.7
2023-05-21T18:20:22.135Z,1017.7
2023-05-21T18:22:22.296Z,1017.7
2023-05-21T18:24:22.153Z,1017.7
2023-05-21T18:26:22.185Z,1017.7
2023-05-21T18:28:22.230Z,1017.7
2023-05-21T18:30:22.155Z,1017.7
2023-05-21T18:32:22.178Z,1017.7
2023-05-21T18:34:22.119Z,1017.7
2023-05-21T18:36:22.275Z,1017.6
2023-05-21T18:38:22.128Z,1017.7
2023-05-21T18:40:22.100Z,1017.6
2023-05-21T18:42:22.129Z,1017.6
2023-05-21T18:44:22.170Z,1017.6
2023-05-21T18:46:22.152Z,1017.6
2023-05-21T18:48:22.137Z,1017.6
2023-05-21T18:50:22.164Z,1017.6
2023-05-21T18:52:22.103Z,1017.6
2023-05-21T18:54:22.099Z,1017.5
2023-05-21T18:56:22.124Z,1017.5
2023-05-21T18:58:22.083Z,1017.5
2023-05-21T19:00:22.119Z,1017.5
2023-05-21T19:02:22.179Z,1017.4
2023-05-21T19:04:22.078Z,1017.5
2023-05-21T19:06:22.157Z,1017.4
2023-05-21T19:08:23.490Z,1017.5
2023-05-21T19:10:23.153Z,1017.4
2023-05-21T19:12:22.163Z,1017.4
2023-05-21T19:14:22.072Z,1017.4
2023-05-21T19:16:22.365Z,1017.4
2023-05-21T19:18:24.624Z,1017.5
2023-05-21T19:20:22.185Z,1017.4
2023-05-21T19:22:22.017Z,1017.4
2023-05-21T19:24:22.169Z,1017.4
2023-05-21T19:26:22.098Z,1017.4
2023-05-21T19:28:22.159Z,1017.3
2023-05-21T19:30:22.053Z,1017.3
2023-05-21T19:32:22.164Z,1017.3
2023-05-21T19:34:22.149Z,1017.3
2023-05-21T19:36:23.571Z,1017.3
2023-05-21T19:38:22.278Z,1017.3
2023-05-21T19:40:22.187Z,1017.4
2023-05-21T19:42:23.088Z,1017.4
2023-05-21T19:44:22.143Z,1017.4
2023-05-21T19:46:22.075Z,1017.3
2023-05-21T19:48:22.088Z,1017.3
2023-05-21T19:50:22.140Z,1017.3
2023-05-21T19:52:22.101Z,1017.2
2023-05-21T19:54:22.014Z,1017.2
2023-05-21T19:56:22.089Z,1017.3
2023-05-21T19:58:22.049Z,1017.3
2023-05-21T20:00:22.017Z,1017.3
2023-05-21T20:02:22.059Z,1017.3
2023-05-21T20:04:22.126Z,1017.3
2023-05-21T20:06:21.982Z,1017.3
2023-05-21T20:08:22.031Z,1017.3
2023-05-21T20:10:22.177Z,1017.3
2023-05-21T20:12:21.960Z,1017.3
2023-05-21T20:14:22.045Z,1017.2
2023-05-21T20:16:22.084Z,1017.2
2023-05-21T20:18:22.100Z,1017.2
2023-05-21T20:20:22.139Z,1017.1
2023-05-21T20:22:22.019Z,1017.1
2023-05-21T20:24:22.026Z,1017.2
2023-05-21T20:26:22.146Z,1017.1
2023-05-21T20:28:22.936Z,1017.1
2023-05-21T20:30:23.211Z,1017.1
2023-05-21T20:32:23.115Z,1017.1
2023-05-21T20:34:21.954Z,1017.1
2023-05-21T20:36:26.361Z,1017
2023-05-21T20:38:22.055Z,1017
2023-05-21T20:40:21.954Z,1017
2023-05-21T20:42:22.018Z,1017
2023-05-21T20:44:21.975Z,1017
2023-05-21T20:46:22.090Z,1017
2023-05-21T20:48:22.015Z,1017
2023-05-21T20:50:21.957Z,1016.9
2023-05-21T20:52:21.958Z,1017
2023-05-21T20:54:22.032Z,1017
2023-05-21T20:56:33.962Z,1017
2023-05-21T20:58:22.112Z,1017
2023-05-21T21:00:22.285Z,1017
2023-05-21T21:02:21.916Z,1017
2023-05-21T21:04:21.951Z,1017
2023-05-21T21:06:21.971Z,1017
2023-05-21T21:08:22.018Z,1016.9
2023-05-21T21:10:22.009Z,1016.9
2023-05-21T21:12:26.329Z,1016.9
2023-05-21T21:14:22.025Z,1017
2023-05-21T21:16:22.107Z,1017
2023-05-21T21:18:21.982Z,1017
2023-05-21T21:20:21.918Z,1017
2023-05-21T21:22:21.901Z,1017
2023-05-21T21:24:21.983Z,1017
2023-05-21T21:26:21.967Z,1017
2023-05-21T21:28:21.990Z,1017
2023-05-21T21:30:22.915Z,1017
2023-05-21T21:32:22.090Z,1017
2023-05-21T21:34:21.948Z,1017
2023-05-21T21:36:22.076Z,1017
2023-05-21T21:38:22.169Z,1017
2023-05-21T21:40:23.201Z,1017
2023-05-21T21:42:22.031Z,1017.1
2023-05-21T21:44:23.445Z,1017
2023-05-21T21:46:22.100Z,1017
2023-05-21T21:48:22.205Z,1017
2023-05-21T21:50:23.363Z,1017
2023-05-21T21:52:24.439Z,1017
2023-05-21T21:54:22.316Z,1017
2023-05-21T21:56:21.988Z,1017
2023-05-21T21:58:21.877Z,1017
2023-05-21T22:00:22.024Z,1017
2023-05-21T22:02:21.985Z,1017
2023-05-21T22:04:22.035Z,1017
2023-05-21T22:06:44.450Z,1017
2023-05-21T22:08:26.191Z,1017
2023-05-21T22:10:21.956Z,1017
2023-05-21T22:12:24.617Z,1017
2023-05-21T22:14:23.028Z,1017.2
2023-05-21T22:16:22.101Z,1017.2
2023-05-21T22:18:28.394Z,1017.2
2023-05-21T22:20:21.959Z,1017.2
2023-05-21T22:22:24.662Z,1017.3
2023-05-21T22:24:31.845Z,1017.3
2023-05-21T22:26:22.010Z,1017.3
2023-05-21T22:28:22.134Z,1017.3
2023-05-21T22:30:21.843Z,1017.2
2023-05-21T22:32:23.511Z,1017.1
2023-05-21T22:34:22.227Z,1017.1
2023-05-21T22:36:21.856Z,1017.4
2023-05-21T22:38:21.974Z,1017.4
2023-05-21T22:40:23.115Z,1017.4
2023-05-21T22:42:22.040Z,1017.3
2023-05-21T22:44:21.922Z,1017.2
2023-05-21T22:46:23.026Z,1017.1
2023-05-21T22:48:21.991Z,1017.1
2023-05-21T22:50:24.616Z,1017.1
2023-05-21T22:52:22.100Z,1017.1
2023-05-21T22:54:29.375Z,1017.1
2023-05-21T22:56:21.855Z,1017.1
2023-05-21T22:58:22.017Z,1017.1
2023-05-21T23:00:04.939Z,1017.1
2023-05-21T23:02:21.949Z,1017.2
2023-05-21T23:04:29.231Z,1017.2
2023-05-21T23:06:26.299Z,1017.1
2023-05-21T23:08:33.937Z,1017.2
2023-05-21T23:10:21.810Z,1017.2
2023-05-21T23:12:23.212Z,1017.2
2023-05-21T23:14:21.854Z,1017.2
2023-05-21T23:16:22.138Z,1017.3
2023-05-21T23:18:21.931Z,1017.3
2023-05-21T23:20:23.353Z,1017.3
2023-05-21T23:22:22.698Z,1017.3
2023-05-21T23:24:22.865Z,1017.3
2023-05-21T23:26:21.887Z,1017.3
2023-05-21T23:28:21.774Z,1017.3
2023-05-21T23:30:56.482Z,1017.3
2023-05-21T23:32:21.884Z,1017.3
2023-05-21T23:34:26.334Z,1017.3
2023-05-21T23:36:21.742Z,1017.3
2023-05-21T23:38:23.858Z,1017.4
2023-05-21T23:40:21.944Z,1017.3
2023-05-21T23:42:22.038Z,1017.4
2023-05-21T23:44:24.414Z,1017.4
2023-05-21T23:46:29.560Z,1017.4
2023-05-21T23:48:23.199Z,1017.4
2023-05-21T23:50:23.169Z,1017.4
2023-05-21T23:52:21.977Z,1017.5
2023-05-21T23:54:21.793Z,1017.5
2023-05-21T23:56:21.757Z,1017.5
2023-05-21T23:58:21.836Z,1017.6
